Time;durP1;ratioP1;P1;durP2;ratioP2;P2;SDS_P1;SDS_P2;PMS_P1;PMS_P2;Temp;Humidity;BMP_temperature;BMP_pressure;BME280_temperature;BME280_humidity;BME280_pressure;Samples;Min_cycle;Max_cycle;Signal;HPM_P1;HPM_P2
2022/03/09 00:08:36;;;;;;;9.13;3.80;;;;;;;;;;20913959;28;20128;-58
2022/03/09 00:18:38;;;;;;;8.35;4.10;;;;;;;;;;20920576;28;20500;-55
2022/03/09 00:28:40;;;;;;;7.15;3.70;;;;;;;;;;20928595;28;20080;-57
2022/03/09 00:38:42;;;;;;;7.07;4.47;;;;;;;;;;20927547;28;20192;-58
2022/03/09 00:48:45;;;;;;;11.77;6.72;;;;;;;;;;20928132;28;20507;-59
2022/03/09 00:58:48;;;;;;;9.93;4.97;;;;;;;;;;20926106;28;20090;-56
2022/03/09 01:08:50;;;;;;;8.85;4.20;;;;;;;;;;20926581;28;20060;-55
2022/03/09 01:18:52;;;;;;;11.15;4.68;;;;;;;;;;20925337;28;20440;-55
2022/03/09 01:28:55;;;;;;;9.07;4.20;;;;;;;;;;20923410;28;20091;-55
2022/03/09 01:38:57;;;;;;;10.20;4.55;;;;;;;;;;20924035;28;20397;-56
2022/03/09 01:49:01;;;;;;;13.32;5.22;;;;;;;;;;20923516;28;20499;-58
2022/03/09 01:59:07;;;;;;;19.90;5.68;;;;;;;;;;20921571;28;20049;-58
2022/03/09 02:19:31;;;;;;;19.90;5.57;;;;;;;;;;20920771;28;20057;-56
2022/03/09 02:29:33;;;;;;;14.27;5.03;;;;;;;;;;20920688;28;20424;-56
2022/03/09 02:39:36;;;;;;;13.48;4.93;;;;;;;;;;20918837;28;20120;-56
2022/03/09 02:49:42;;;;;;;13.15;5.07;;;;;;;;;;20917578;28;20054;-56
2022/03/09 03:00:00;;;;;;;16.20;6.50;;;;;;;;;;20918011;28;20052;-56
2022/03/09 03:10:17;;;;;;;14.13;5.65;;;;;;;;;;20916611;28;20040;-55
2022/03/09 03:20:31;;;;;;;15.45;5.93;;;;;;;;;;20915332;28;20065;-55
2022/03/09 03:30:52;;;;;;;10.23;5.70;;;;;;;;;;20915803;28;20481;-54
2022/03/09 03:41:14;;;;;;;13.52;6.07;;;;;;;;;;20914151;28;20049;-55
2022/03/09 03:51:35;;;;;;;13.98;6.28;;;;;;;;;;20913993;28;20481;-53
2022/03/09 04:01:57;;;;;;;12.57;6.45;;;;;;;;;;20913289;28;20463;-54
2022/03/09 04:12:18;;;;;;;10.35;5.97;;;;;;;;;;20913659;28;20049;-59
2022/03/09 04:22:40;;;;;;;8.90;5.80;;;;;;;;;;20912597;28;20057;-55
2022/03/09 04:33:02;;;;;;;12.60;6.05;;;;;;;;;;20912793;28;20045;-53
2022/03/09 04:43:19;;;;;;;15.27;7.05;;;;;;;;;;20912597;28;20045;-56
2022/03/09 04:53:41;;;;;;;15.50;6.45;;;;;;;;;;20910859;28;20045;-56
2022/03/09 05:04:02;;;;;;;10.68;5.85;;;;;;;;;;20916232;28;20048;-53
2022/03/09 05:14:16;;;;;;;14.65;5.70;;;;;;;;;;20925218;28;20049;-58
2022/03/09 05:24:32;;;;;;;11.38;6.03;;;;;;;;;;20924725;28;20493;-55
2022/03/09 05:34:47;;;;;;;13.07;5.07;;;;;;;;;;20923400;28;20045;-56
2022/03/09 05:44:50;;;;;;;7.18;4.20;;;;;;;;;;20925213;28;20503;-57
2022/03/09 05:55:05;;;;;;;6.97;3.72;;;;;;;;;;20923568;28;20045;-56
2022/03/09 06:05:15;;;;;;;6.80;3.95;;;;;;;;;;20921444;28;20049;-57
2022/03/09 06:15:17;;;;;;;9.52;3.90;;;;;;;;;;20919969;28;20084;-56
2022/03/09 06:25:18;;;;;;;8.70;4.50;;;;;;;;;;20919778;28;20130;-53
2022/03/09 06:35:20;;;;;;;8.75;4.50;;;;;;;;;;20920501;28;20406;-55
2022/03/09 06:45:22;;;;;;;7.40;4.38;;;;;;;;;;20919298;28;20429;-53
2022/03/09 06:55:24;;;;;;;9.27;4.60;;;;;;;;;;20918023;28;20067;-57
2022/03/09 07:05:27;;;;;;;7.55;4.00;;;;;;;;;;20916096;28;20049;-56
2022/03/09 07:15:30;;;;;;;8.73;4.55;;;;;;;;;;20916215;28;20056;-55
2022/03/09 07:25:34;;;;;;;7.05;3.85;;;;;;;;;;20914151;28;20404;-55
2022/03/09 07:35:36;;;;;;;8.48;4.60;;;;;;;;;;20914940;28;20130;-55
2022/03/09 07:45:40;;;;;;;9.30;5.20;;;;;;;;;;20914236;28;20132;-58
2022/03/09 07:55:43;;;;;;;11.82;5.00;;;;;;;;;;20913227;28;20048;-59
2022/03/09 08:05:45;;;;;;;20.13;6.82;;;;;;;;;;20913336;28;20468;-55
2022/03/09 08:15:47;;;;;;;13.80;6.55;;;;;;;;;;20911992;28;20076;-57
2022/03/09 08:25:50;;;;;;;12.65;5.43;;;;;;;;;;20909914;28;20057;-58
2022/03/09 08:35:53;;;;;;;9.30;4.03;;;;;;;;;;20911780;28;20049;-54
2022/03/09 08:45:56;;;;;;;10.95;4.43;;;;;;;;;;20927645;28;20118;-56
2022/03/09 08:55:59;;;;;;;12.43;4.65;;;;;;;;;;20926252;28;20126;-57
2022/03/09 09:06:03;;;;;;;10.32;4.32;;;;;;;;;;20925623;28;20059;-58
2022/03/09 09:16:05;;;;;;;14.38;5.43;;;;;;;;;;20924646;28;20163;-58
2022/03/09 09:26:08;;;;;;;10.60;4.50;;;;;;;;;;20924350;28;20110;-55
2022/03/09 09:36:10;;;;;;;14.77;4.97;;;;;;;;;;20924112;28;20068;-54
2022/03/09 09:46:13;;;;;;;17.27;5.30;;;;;;;;;;20922271;28;20140;-55
2022/03/09 09:56:16;;;;;;;9.45;4.32;;;;;;;;;;20922836;28;20044;-55
2022/03/09 10:06:18;;;;;;;16.60;4.95;;;;;;;;;;20918899;28;20551;-55
2022/03/09 10:16:23;;;;;;;11.95;5.18;;;;;;;;;;20920727;28;20077;-58
2022/03/09 10:26:40;;;;;;;7.93;4.10;;;;;;;;;;20918611;28;20126;-58
2022/03/09 10:37:01;;;;;;;8.93;4.78;;;;;;;;;;20917833;28;20140;-55
2022/03/09 10:47:04;;;;;;;20.35;7.63;;;;;;;;;;20917190;28;20106;-54
2022/03/09 10:57:08;;;;;;;10.68;4.60;;;;;;;;;;20915614;28;20504;-58
2022/03/09 11:07:11;;;;;;;16.95;5.05;;;;;;;;;;20847610;28;20409;-58
2022/03/09 11:17:16;;;;;;;13.18;4.45;;;;;;;;;;20843481;28;20057;-56
2022/03/09 11:27:20;;;;;;;10.55;4.45;;;;;;;;;;20837678;28;20130;-57
2022/03/09 11:37:35;;;;;;;9.93;3.85;;;;;;;;;;20893266;28;20421;-57
2022/03/09 11:47:57;;;;;;;14.90;4.90;;;;;;;;;;20897875;28;20110;-56
2022/03/09 11:57:59;;;;;;;9.38;3.58;;;;;;;;;;20910003;28;20056;-57
2022/03/09 12:08:02;;;;;;;11.43;3.35;;;;;;;;;;20907707;28;20433;-57
2022/03/09 12:18:24;;;;;;;14.35;3.60;;;;;;;;;;20912418;28;20072;-58
2022/03/09 12:28:34;;;;;;;8.63;2.95;;;;;;;;;;20915117;28;20049;-65
2022/03/09 12:38:39;;;;;;;8.73;3.60;;;;;;;;;;20924685;28;20048;-58
2022/03/09 12:48:41;;;;;;;10.43;3.60;;;;;;;;;;20923277;28;20122;-59
2022/03/09 12:58:44;;;;;;;6.03;2.35;;;;;;;;;;20923610;28;20045;-58
2022/03/09 13:08:46;;;;;;;10.95;2.78;;;;;;;;;;20923547;28;20052;-55
2022/03/09 13:18:49;;;;;;;12.20;4.05;;;;;;;;;;20925944;28;20060;-57
2022/03/09 13:28:55;;;;;;;13.30;3.60;;;;;;;;;;20922626;28;20449;-57
2022/03/09 13:38:59;;;;;;;10.60;2.72;;;;;;;;;;20921360;28;20045;-56
2022/03/09 13:49:08;;;;;;;11.60;2.97;;;;;;;;;;20921384;28;20425;-57
2022/03/09 13:59:10;;;;;;;6.40;2.35;;;;;;;;;;20920711;28;20510;-57
2022/03/09 14:09:16;;;;;;;6.28;2.22;;;;;;;;;;20919499;28;20056;-57
2022/03/09 14:19:20;;;;;;;8.40;2.47;;;;;;;;;;20918387;28;20057;-57
2022/03/09 14:29:26;;;;;;;6.93;2.00;;;;;;;;;;20917750;28;20053;-57
2022/03/09 14:39:29;;;;;;;9.30;1.88;;;;;;;;;;20916036;28;20430;-56
2022/03/09 14:49:31;;;;;;;6.20;2.00;;;;;;;;;;20916515;28;20071;-57
2022/03/09 14:59:33;;;;;;;7.55;2.83;;;;;;;;;;20916147;28;20080;-55
2022/03/09 15:09:35;;;;;;;7.60;2.53;;;;;;;;;;20915913;28;20064;-56
2022/03/09 15:19:39;;;;;;;9.07;2.47;;;;;;;;;;20930557;28;20473;-56
2022/03/09 15:29:42;;;;;;;9.07;2.10;;;;;;;;;;20915419;28;20408;-56
2022/03/09 15:39:45;;;;;;;6.73;1.93;;;;;;;;;;20913781;28;20053;-57
2022/03/09 15:49:47;;;;;;;12.57;3.70;;;;;;;;;;20913080;28;20060;-57
2022/03/09 15:59:50;;;;;;;8.43;1.80;;;;;;;;;;20912749;28;20079;-58
2022/03/09 16:09:53;;;;;;;8.07;2.33;;;;;;;;;;20913029;28;20052;-58
2022/03/09 16:19:56;;;;;;;9.57;3.70;;;;;;;;;;20911042;28;20053;-57
2022/03/09 16:29:58;;;;;;;7.55;2.50;;;;;;;;;;20911492;28;20049;-59
2022/03/09 16:40:00;;;;;;;7.63;3.10;;;;;;;;;;20908662;28;20071;-58
2022/03/09 16:50:03;;;;;;;10.25;3.00;;;;;;;;;;20909585;28;20048;-59
2022/03/09 17:00:09;;;;;;;11.93;5.22;;;;;;;;;;20915688;28;20106;-56
2022/03/09 17:10:12;;;;;;;10.48;2.58;;;;;;;;;;20926073;28;20052;-57
2022/03/09 17:20:14;;;;;;;9.02;3.50;;;;;;;;;;20923838;28;20059;-57
2022/03/09 17:30:17;;;;;;;11.68;3.63;;;;;;;;;;20922875;28;20132;-57
2022/03/09 17:40:19;;;;;;;8.55;3.33;;;;;;;;;;20922562;28;20143;-58
2022/03/09 17:50:21;;;;;;;8.85;3.95;;;;;;;;;;20921798;28;20411;-56
2022/03/09 18:00:24;;;;;;;9.88;3.63;;;;;;;;;;20921087;28;20061;-58
2022/03/09 18:10:26;;;;;;;8.70;3.13;;;;;;;;;;20918885;28;20496;-60
2022/03/09 18:20:28;;;;;;;11.18;3.75;;;;;;;;;;20917561;28;20095;-58
2022/03/09 18:30:30;;;;;;;10.27;3.00;;;;;;;;;;20914485;28;20584;-57
2022/03/09 18:40:33;;;;;;;9.82;3.35;;;;;;;;;;20913671;28;20457;-58
2022/03/09 18:50:35;;;;;;;12.18;5.00;;;;;;;;;;20929395;28;20057;-59
2022/03/09 19:00:37;;;;;;;9.68;4.47;;;;;;;;;;20913424;28;20103;-61
2022/03/09 19:10:39;;;;;;;12.75;4.40;;;;;;;;;;20912609;28;20045;-59
2022/03/09 19:20:42;;;;;;;12.50;3.80;;;;;;;;;;20912043;28;20492;-59
2022/03/09 19:30:45;;;;;;;8.45;3.60;;;;;;;;;;20910818;28;20053;-60
2022/03/09 19:40:47;;;;;;;10.95;3.05;;;;;;;;;;20912219;28;20151;-60
2022/03/09 19:50:50;;;;;;;12.07;3.80;;;;;;;;;;20910855;28;20052;-60
2022/03/09 20:00:52;;;;;;;6.22;3.53;;;;;;;;;;20922396;28;20419;-57
2022/03/09 20:10:55;;;;;;;9.75;3.97;;;;;;;;;;20911127;28;20052;-58
2022/03/09 20:20:57;;;;;;;11.10;4.22;;;;;;;;;;20911642;28;20165;-56
2022/03/09 20:30:59;;;;;;;27.40;17.25;;;;;;;;;;20910029;28;20429;-57
2022/03/09 20:41:02;;;;;;;27.45;14.80;;;;;;;;;;20926882;28;20481;-58
2022/03/09 20:51:05;;;;;;;19.92;7.53;;;;;;;;;;20926180;28;20044;-57
2022/03/09 21:01:08;;;;;;;18.65;5.30;;;;;;;;;;20925111;28;20056;-58
2022/03/09 21:11:10;;;;;;;14.43;4.60;;;;;;;;;;20925496;28;20045;-57
2022/03/09 21:21:14;;;;;;;10.00;4.15;;;;;;;;;;20923871;28;20144;-58
2022/03/09 21:31:16;;;;;;;14.50;4.97;;;;;;;;;;20923874;28;20044;-59
2022/03/09 21:41:18;;;;;;;13.63;6.50;;;;;;;;;;20923804;28;20400;-59
2022/03/09 21:51:21;;;;;;;18.83;8.88;;;;;;;;;;20922232;28;20481;-59
2022/03/09 22:01:24;;;;;;;12.93;5.35;;;;;;;;;;20922144;28;20504;-58
2022/03/09 22:11:26;;;;;;;17.23;7.40;;;;;;;;;;20920720;28;20053;-58
2022/03/09 22:21:28;;;;;;;22.77;10.77;;;;;;;;;;20920271;28;20413;-57
2022/03/09 22:31:31;;;;;;;15.30;6.60;;;;;;;;;;20919073;28;20071;-57
2022/03/09 22:41:34;;;;;;;13.93;6.40;;;;;;;;;;20919443;28;20057;-57
2022/03/09 22:51:36;;;;;;;14.25;6.00;;;;;;;;;;20917431;28;20045;-57
2022/03/09 23:01:39;;;;;;;10.55;6.18;;;;;;;;;;20916825;28;20053;-59
2022/03/09 23:11:42;;;;;;;12.77;5.72;;;;;;;;;;20915655;28;20049;-57
2022/03/09 23:21:44;;;;;;;10.70;4.60;;;;;;;;;;20915113;28;20527;-56
2022/03/09 23:31:46;;;;;;;11.80;5.05;;;;;;;;;;20914383;28;20504;-58
2022/03/09 23:41:48;;;;;;;14.18;5.68;;;;;;;;;;20913209;28;20045;-58
2022/03/09 23:51:50;;;;;;;13.93;6.07;;;;;;;;;;20913512;28;20102;-58
